createdAt,value
2023-03-13T00:00:57.949Z,65.60
2023-03-13T00:03:24.847Z,65.73
2023-03-13T00:05:56.533Z,65.22
2023-03-13T00:08:24.062Z,65.85
2023-03-13T00:10:50.669Z,65.84
2023-03-13T00:13:17.212Z,65.73
2023-03-13T00:15:43.744Z,65.52
2023-03-13T00:18:10.318Z,65.43
2023-03-13T00:20:36.774Z,65.43
2023-03-13T00:23:03.442Z,65.26
2023-03-13T00:25:29.991Z,65.37
2023-03-13T00:27:56.482Z,65.42
2023-03-13T00:30:23.066Z,65.47
2023-03-13T00:32:49.663Z,65.62
2023-03-13T00:35:16.357Z,65.62
2023-03-13T00:37:43.341Z,65.60
2023-03-13T00:40:10.344Z,65.70
2023-03-13T00:42:36.986Z,65.78
2023-03-13T00:45:04.180Z,65.64
2023-03-13T00:47:30.736Z,65.79
2023-03-13T00:49:57.212Z,65.67
2023-03-13T00:52:24.130Z,65.71
2023-03-13T00:54:50.657Z,65.70
2023-03-13T00:57:17.177Z,65.78
2023-03-13T00:59:43.710Z,65.67
2023-03-13T01:02:10.243Z,65.63
2023-03-13T01:04:36.860Z,65.71
2023-03-13T01:07:03.372Z,65.75
2023-03-13T01:09:30.052Z,65.63
2023-03-13T01:11:56.759Z,65.77
2023-03-13T01:14:23.328Z,65.67
2023-03-13T01:16:49.970Z,65.77
2023-03-13T01:19:17.271Z,65.74
2023-03-13T01:21:46.021Z,65.72
2023-03-13T01:24:12.711Z,65.80
2023-03-13T01:26:39.196Z,65.98
2023-03-13T01:29:05.893Z,65.77
2023-03-13T01:31:35.144Z,65.99
2023-03-13T01:34:05.457Z,65.82
2023-03-13T01:36:33.217Z,66.03
2023-03-13T01:39:00.995Z,65.85
2023-03-13T01:41:28.959Z,65.69
2023-03-13T01:43:55.834Z,65.89
2023-03-13T01:46:28.508Z,66.07
2023-03-13T01:49:10.165Z,65.83
2023-03-13T01:51:49.146Z,65.98
2023-03-13T01:54:24.746Z,65.81
2023-03-13T01:56:53.890Z,66.13
2023-03-13T01:59:28.524Z,66.19
2023-03-13T02:01:58.815Z,66.37
2023-03-13T02:04:29.263Z,66.13
2023-03-13T02:07:01.946Z,65.96
2023-03-13T02:09:32.226Z,66.14
2023-03-13T02:12:07.226Z,65.96
2023-03-13T02:14:36.030Z,65.99
2023-03-13T02:17:03.748Z,66.41
2023-03-13T02:19:35.626Z,66.37
2023-03-13T02:22:30.243Z,66.33
2023-03-13T02:25:12.766Z,66.59
2023-03-13T02:27:40.536Z,66.81
2023-03-13T02:30:08.774Z,66.91
2023-03-13T02:32:35.744Z,66.27
2023-03-13T02:35:07.517Z,66.99
2023-03-13T02:37:34.374Z,67.03
2023-03-13T02:40:08.418Z,66.91
2023-03-13T02:42:36.551Z,66.96
2023-03-13T02:45:03.070Z,66.27
2023-03-13T02:47:29.590Z,66.73
2023-03-13T02:49:56.219Z,66.99
2023-03-13T02:52:38.181Z,66.48
2023-03-13T02:55:12.119Z,66.81
2023-03-13T02:57:38.682Z,67.11
2023-03-13T03:00:07.347Z,66.67
2023-03-13T03:02:34.552Z,67.14
2023-03-13T03:05:01.140Z,67.40
2023-03-13T03:07:27.910Z,67.51
2023-03-13T03:09:54.538Z,67.54
2023-03-13T03:12:21.067Z,67.41
2023-03-13T03:14:47.976Z,67.62
2023-03-13T03:17:15.199Z,67.47
2023-03-13T03:19:41.823Z,67.47
2023-03-13T03:22:09.309Z,67.59
2023-03-13T03:24:35.797Z,67.79
2023-03-13T03:27:04.049Z,67.20
2023-03-13T03:29:37.008Z,68.00
2023-03-13T03:32:06.540Z,67.91
2023-03-13T03:34:33.322Z,68.05
2023-03-13T03:37:00.112Z,68.10
2023-03-13T03:39:28.509Z,68.22
2023-03-13T03:41:55.821Z,68.45
2023-03-13T03:44:23.476Z,68.42
2023-03-13T03:46:53.666Z,68.37
2023-03-13T03:49:21.641Z,68.53
2023-03-13T03:51:48.626Z,68.50
2023-03-13T03:54:19.030Z,68.41
2023-03-13T03:56:45.508Z,68.46
2023-03-13T03:59:12.115Z,68.55
2023-03-13T04:01:47.430Z,68.63
2023-03-13T04:04:18.596Z,68.53
2023-03-13T04:06:49.916Z,68.39
2023-03-13T04:09:16.721Z,68.57
2023-03-13T04:11:43.276Z,68.44
2023-03-13T04:14:11.207Z,68.32
2023-03-13T04:16:38.016Z,68.42
2023-03-13T04:19:04.810Z,68.43
2023-03-13T04:21:31.331Z,68.37
2023-03-13T04:24:02.487Z,68.07
2023-03-13T04:26:30.137Z,68.17
2023-03-13T04:28:58.690Z,67.89
2023-03-13T04:31:43.592Z,68.16
2023-03-13T04:34:29.526Z,67.91
2023-03-13T04:37:28.620Z,67.80
2023-03-13T04:40:17.758Z,67.98
2023-03-13T04:43:01.257Z,67.96
2023-03-13T04:45:46.780Z,67.89
2023-03-13T04:48:27.948Z,67.82
2023-03-13T04:51:14.793Z,67.77
2023-03-13T04:53:52.356Z,67.83
2023-03-13T04:56:43.769Z,67.57
2023-03-13T04:59:30.005Z,67.56
2023-03-13T05:02:16.750Z,67.61
2023-03-13T05:05:06.064Z,67.60
2023-03-13T05:07:51.106Z,67.58
2023-03-13T05:10:36.107Z,67.54
2023-03-13T05:13:23.084Z,67.04
2023-03-13T05:15:52.222Z,66.94
2023-03-13T05:18:53.989Z,66.43
2023-03-13T05:21:29.086Z,66.07
2023-03-13T05:24:14.083Z,66.00
2023-03-13T05:26:59.531Z,66.12
2023-03-13T05:29:37.773Z,66.06
2023-03-13T05:32:30.696Z,66.23
2023-03-13T05:35:16.920Z,66.23
2023-03-13T05:38:10.084Z,66.14
2023-03-13T05:40:58.692Z,66.18
2023-03-13T05:43:54.856Z,65.96
2023-03-13T05:46:54.050Z,66.12
2023-03-13T05:49:38.937Z,65.97
2023-03-13T05:52:18.652Z,66.06
2023-03-13T05:55:11.794Z,66.30
2023-03-13T05:57:53.907Z,66.36
2023-03-13T06:00:27.855Z,66.17
2023-03-13T06:03:13.044Z,65.86
2023-03-13T06:05:42.664Z,65.79
2023-03-13T06:08:22.427Z,65.73
2023-03-13T06:10:49.594Z,65.68
2023-03-13T06:13:19.998Z,65.78
2023-03-13T06:15:57.189Z,64.89
2023-03-13T06:18:40.709Z,65.92
2023-03-13T06:21:07.252Z,65.91
2023-03-13T06:23:33.895Z,65.55
2023-03-13T06:26:00.448Z,65.69
2023-03-13T06:28:27.070Z,65.75
2023-03-13T06:30:53.580Z,65.66
2023-03-13T06:33:20.102Z,65.65
2023-03-13T06:35:56.175Z,65.94
2023-03-13T06:38:24.845Z,65.58
2023-03-13T06:40:51.636Z,65.67
2023-03-13T06:43:19.167Z,65.59
2023-03-13T06:45:45.892Z,65.55
2023-03-13T06:48:12.417Z,65.52
2023-03-13T06:50:40.478Z,65.55
2023-03-13T06:53:07.302Z,63.93
2023-03-13T06:55:33.939Z,65.30
2023-03-13T06:58:00.484Z,65.15
2023-03-13T07:00:27.085Z,64.90
2023-03-13T07:02:53.768Z,64.94
2023-03-13T07:05:20.344Z,64.80
2023-03-13T07:07:47.035Z,64.60
2023-03-13T07:10:13.630Z,64.79
2023-03-13T07:12:40.104Z,64.18
2023-03-13T07:15:07.545Z,64.58
2023-03-13T07:17:34.272Z,64.02
2023-03-13T07:20:01.081Z,64.14
2023-03-13T07:22:27.656Z,64.14
2023-03-13T07:24:54.308Z,63.64
2023-03-13T07:27:21.079Z,63.52
2023-03-13T07:29:47.835Z,63.48
2023-03-13T07:32:14.450Z,63.18
2023-03-13T07:34:40.993Z,62.99
2023-03-13T07:37:07.436Z,63.55
2023-03-13T07:39:33.938Z,63.63
2023-03-13T07:42:00.402Z,63.82
2023-03-13T07:44:27.112Z,63.63
2023-03-13T07:46:53.627Z,63.57
2023-03-13T07:49:20.237Z,63.44
2023-03-13T07:51:46.809Z,63.25
2023-03-13T07:54:13.742Z,63.28
2023-03-13T07:56:40.388Z,63.18
2023-03-13T07:59:07.165Z,62.97
2023-03-13T08:01:33.747Z,62.23
2023-03-13T08:04:00.234Z,62.55
2023-03-13T08:06:27.803Z,62.47
2023-03-13T08:08:57.530Z,61.87
2023-03-13T08:11:26.137Z,62.43
2023-03-13T08:13:54.080Z,62.80
2023-03-13T08:16:23.834Z,62.92
2023-03-13T08:18:52.884Z,63.09
2023-03-13T08:21:27.756Z,62.30
2023-03-13T08:23:56.443Z,63.39
2023-03-13T08:26:26.021Z,63.40
2023-03-13T08:28:57.682Z,64.12
2023-03-13T08:31:26.929Z,64.02
2023-03-13T08:33:53.527Z,64.27
2023-03-13T08:36:23.219Z,63.95
2023-03-13T08:38:50.934Z,64.07
2023-03-13T08:41:20.009Z,63.61
2023-03-13T08:43:47.308Z,64.07
2023-03-13T08:46:15.013Z,63.76
2023-03-13T08:48:42.070Z,64.03
2023-03-13T08:51:11.784Z,63.27
2023-03-13T08:53:39.570Z,63.84
2023-03-13T08:56:06.949Z,63.81
2023-03-13T08:58:33.628Z,63.91
2023-03-13T09:01:04.420Z,62.30
2023-03-13T09:03:31.720Z,63.82
2023-03-13T09:05:59.596Z,63.93
2023-03-13T09:08:27.117Z,64.08
2023-03-13T09:10:57.448Z,62.48
2023-03-13T09:13:25.014Z,64.30
2023-03-13T09:16:02.317Z,62.08
2023-03-13T09:18:29.701Z,64.74
2023-03-13T09:20:56.245Z,64.87
2023-03-13T09:23:23.538Z,64.79
2023-03-13T09:25:53.688Z,63.73
2023-03-13T09:28:20.532Z,64.55
2023-03-13T09:30:47.137Z,64.87
2023-03-13T09:33:13.683Z,65.11
2023-03-13T09:35:40.628Z,63.50
2023-03-13T09:38:07.854Z,63.27
2023-03-13T09:40:41.777Z,58.56
2023-03-13T09:43:25.508Z,59.74
2023-03-13T09:45:57.968Z,60.62
2023-03-13T09:48:29.701Z,58.37
2023-03-13T09:51:28.414Z,52.90
2023-03-13T09:54:04.066Z,60.75
2023-03-13T09:56:39.154Z,54.40
2023-03-13T09:59:11.195Z,51.51
2023-03-13T10:01:40.317Z,55.25
2023-03-13T10:04:31.310Z,52.64
2023-03-13T10:06:58.042Z,53.79
2023-03-13T10:09:33.867Z,53.19
2023-03-13T10:12:06.307Z,47.84
2023-03-13T10:14:47.580Z,48.30
2023-03-13T10:17:32.081Z,48.50
2023-03-13T10:20:26.537Z,46.44
2023-03-13T10:23:02.960Z,45.32
2023-03-13T10:25:29.424Z,46.31
2023-03-13T10:27:56.368Z,49.43
2023-03-13T10:30:27.439Z,47.14
2023-03-13T10:32:58.054Z,49.69
2023-03-13T10:35:31.044Z,50.24
2023-03-13T10:38:05.881Z,44.58
2023-03-13T10:40:32.612Z,50.71
2023-03-13T10:43:12.916Z,43.87
2023-03-13T10:45:39.636Z,46.59
2023-03-13T10:48:29.427Z,47.55
2023-03-13T10:50:57.255Z,48.89
2023-03-13T10:53:33.161Z,47.44
2023-03-13T10:56:15.670Z,41.96
2023-03-13T10:58:43.268Z,47.54
2023-03-13T11:01:16.688Z,43.78
2023-03-13T11:03:44.400Z,48.86
2023-03-13T11:06:31.931Z,45.32
2023-03-13T11:09:02.503Z,48.22
2023-03-13T11:11:29.030Z,49.20
2023-03-13T11:14:09.197Z,43.66
2023-03-13T11:16:45.264Z,41.54
2023-03-13T11:19:34.357Z,46.13
2023-03-13T11:22:19.710Z,49.08
2023-03-13T11:25:04.449Z,42.81
2023-03-13T11:27:55.677Z,44.76
2023-03-13T11:30:52.884Z,44.67
2023-03-13T11:33:42.150Z,42.01
2023-03-13T11:36:19.001Z,44.56
2023-03-13T11:38:54.144Z,44.11
2023-03-13T11:42:15.031Z,45.87
2023-03-13T11:45:12.867Z,45.70
2023-03-13T11:48:07.032Z,39.12
2023-03-13T11:50:39.934Z,44.17
2023-03-13T11:53:21.363Z,43.79
2023-03-13T11:56:00.134Z,41.75
2023-03-13T11:58:58.804Z,44.12
2023-03-13T12:01:34.757Z,44.23
2023-03-13T12:04:28.746Z,40.51
2023-03-13T12:07:03.612Z,40.27
2023-03-13T12:09:46.001Z,41.11
2023-03-13T12:12:21.235Z,44.76
2023-03-13T12:14:57.819Z,41.10
2023-03-13T12:17:42.094Z,41.37
2023-03-13T12:20:20.654Z,44.60
2023-03-13T12:23:31.342Z,39.81
2023-03-13T12:26:13.335Z,42.67
2023-03-13T12:29:08.982Z,38.69
2023-03-13T12:31:47.393Z,39.42
2023-03-13T12:34:43.254Z,43.74
2023-03-13T12:37:28.167Z,43.11
2023-03-13T12:40:12.180Z,43.46
2023-03-13T12:42:38.699Z,45.10
2023-03-13T12:45:07.705Z,43.13
2023-03-13T12:47:45.929Z,39.89
2023-03-13T12:50:29.255Z,38.78
2023-03-13T12:53:21.165Z,44.76
2023-03-13T12:56:04.358Z,43.18
2023-03-13T12:58:59.605Z,41.22
2023-03-13T13:01:36.373Z,43.03
2023-03-13T13:04:02.947Z,44.60
2023-03-13T13:06:52.230Z,43.01
2023-03-13T13:09:33.747Z,43.08
2023-03-13T13:12:25.215Z,41.84
2023-03-13T13:14:51.651Z,43.61
2023-03-13T13:17:43.281Z,42.97
2023-03-13T13:20:28.529Z,39.45
2023-03-13T13:22:55.069Z,42.32
2023-03-13T13:25:31.933Z,41.93
2023-03-13T13:28:26.721Z,42.73
2023-03-13T13:30:56.182Z,42.44
2023-03-13T13:33:22.730Z,42.33
2023-03-13T13:36:07.591Z,42.71
2023-03-13T13:38:35.981Z,42.23
2023-03-13T13:41:02.381Z,42.41
2023-03-13T13:43:40.693Z,40.03
2023-03-13T13:46:27.000Z,43.69
2023-03-13T13:49:05.506Z,43.74
2023-03-13T13:51:33.847Z,43.21
2023-03-13T13:54:01.584Z,43.27
2023-03-13T13:56:28.013Z,44.48
2023-03-13T13:59:05.714Z,44.33
2023-03-13T14:01:33.559Z,44.84
2023-03-13T14:04:27.910Z,42.72
2023-03-13T14:06:58.970Z,43.92
2023-03-13T14:09:43.458Z,42.15
2023-03-13T14:12:30.763Z,40.52
2023-03-13T14:15:14.049Z,38.90
2023-03-13T14:17:44.168Z,42.66
2023-03-13T14:20:17.950Z,40.40
2023-03-13T14:22:46.374Z,42.35
2023-03-13T14:25:12.933Z,43.79
2023-03-13T14:27:47.997Z,40.07
2023-03-13T14:30:18.779Z,43.20
2023-03-13T14:32:46.122Z,43.57
2023-03-13T14:35:16.833Z,42.85
2023-03-13T14:37:45.709Z,43.37
2023-03-13T14:40:18.318Z,42.54
2023-03-13T14:42:50.855Z,42.28
2023-03-13T14:45:30.813Z,39.17
2023-03-13T14:48:23.317Z,41.21
2023-03-13T14:50:59.631Z,42.57
2023-03-13T14:53:35.473Z,43.18
2023-03-13T14:56:11.487Z,39.89
2023-03-13T14:58:38.478Z,43.45
2023-03-13T15:01:23.828Z,40.86
2023-03-13T15:03:50.687Z,43.56
2023-03-13T15:06:19.595Z,43.17
2023-03-13T15:09:07.812Z,42.52
2023-03-13T15:11:34.465Z,45.00
2023-03-13T15:14:01.338Z,44.89
2023-03-13T15:16:28.957Z,44.13
2023-03-13T15:18:55.750Z,43.60
2023-03-13T15:21:24.446Z,44.02
2023-03-13T15:23:54.114Z,43.40
2023-03-13T15:26:20.962Z,43.79
2023-03-13T15:28:48.010Z,43.75
2023-03-13T15:31:15.480Z,44.31
2023-03-13T15:33:43.798Z,43.81
2023-03-13T15:36:11.615Z,44.26
2023-03-13T15:38:38.972Z,44.71
2023-03-13T15:41:05.601Z,44.50
2023-03-13T15:43:32.177Z,44.54
2023-03-13T15:45:58.933Z,45.04
2023-03-13T15:48:28.000Z,44.93
2023-03-13T15:50:57.448Z,44.40
2023-03-13T15:53:26.543Z,44.26
2023-03-13T15:55:54.864Z,45.06
2023-03-13T15:58:22.073Z,44.69
2023-03-13T16:00:48.843Z,45.11
2023-03-13T16:03:18.819Z,45.31
2023-03-13T16:05:46.570Z,45.72
2023-03-13T16:08:25.901Z,44.90
2023-03-13T16:11:00.919Z,45.88
2023-03-13T16:13:27.485Z,45.29
2023-03-13T16:15:53.985Z,45.71
2023-03-13T16:18:22.604Z,46.13
2023-03-13T16:20:50.132Z,46.20
2023-03-13T16:23:16.643Z,46.19
2023-03-13T16:25:44.486Z,46.00
2023-03-13T16:28:12.695Z,46.57
2023-03-13T16:30:40.040Z,45.92
2023-03-13T16:33:07.058Z,45.61
2023-03-13T16:35:34.366Z,45.05
2023-03-13T16:38:01.524Z,44.67
2023-03-13T16:40:34.114Z,43.96
2023-03-13T16:43:01.011Z,44.66
2023-03-13T16:45:27.987Z,44.87
2023-03-13T16:47:54.598Z,45.35
2023-03-13T16:50:34.711Z,44.97
2023-03-13T16:53:01.344Z,45.63
2023-03-13T16:55:28.899Z,44.98
2023-03-13T16:57:57.067Z,45.29
2023-03-13T17:00:24.919Z,45.94
2023-03-13T17:02:51.683Z,46.05
2023-03-13T17:05:19.108Z,44.54
2023-03-13T17:07:48.079Z,44.07
2023-03-13T17:10:22.259Z,44.47
2023-03-13T17:12:49.170Z,44.65
2023-03-13T17:15:16.495Z,44.50
2023-03-13T17:17:45.526Z,45.38
2023-03-13T17:20:16.469Z,44.82
2023-03-13T17:22:43.195Z,45.96
2023-03-13T17:25:10.375Z,46.57
2023-03-13T17:27:37.598Z,46.44
2023-03-13T17:30:20.291Z,46.11
2023-03-13T17:32:47.153Z,46.73
2023-03-13T17:35:14.332Z,46.66
2023-03-13T17:37:40.952Z,46.66
2023-03-13T17:40:16.069Z,45.96
2023-03-13T17:42:42.598Z,47.04
2023-03-13T17:45:09.717Z,47.31
2023-03-13T17:47:36.250Z,47.48
2023-03-13T17:50:03.314Z,47.52
2023-03-13T17:52:29.761Z,47.73
2023-03-13T17:54:56.409Z,47.83
2023-03-13T17:57:23.003Z,48.18
2023-03-13T17:59:49.718Z,48.22
2023-03-13T18:02:17.172Z,48.57
2023-03-13T18:04:44.416Z,48.48
2023-03-13T18:07:25.378Z,47.83
2023-03-13T18:09:51.936Z,48.37
2023-03-13T18:12:19.134Z,48.36
2023-03-13T18:14:46.321Z,48.85
2023-03-13T18:17:21.848Z,48.45
2023-03-13T18:19:49.986Z,49.05
2023-03-13T18:22:17.896Z,48.35
2023-03-13T18:24:44.463Z,49.48
2023-03-13T18:27:14.294Z,49.12
2023-03-13T18:29:41.347Z,49.49
2023-03-13T18:32:08.212Z,49.39
2023-03-13T18:34:34.926Z,49.54
2023-03-13T18:37:02.128Z,49.87
2023-03-13T18:39:28.704Z,49.86
2023-03-13T18:41:55.280Z,49.95
2023-03-13T18:44:21.955Z,50.05
2023-03-13T18:46:49.659Z,50.10
2023-03-13T18:49:19.651Z,49.90
2023-03-13T18:51:47.714Z,50.26
2023-03-13T18:54:14.386Z,49.77
2023-03-13T18:56:41.268Z,50.21
2023-03-13T18:59:12.489Z,49.50
2023-03-13T19:01:39.099Z,50.00
2023-03-13T19:04:05.803Z,50.41
2023-03-13T19:06:35.293Z,50.35
2023-03-13T19:09:37.888Z,49.80
2023-03-13T19:11:58.857Z,50.70
2023-03-13T19:14:25.524Z,50.74
2023-03-13T19:16:53.592Z,50.61
2023-03-13T19:19:22.094Z,50.83
2023-03-13T19:21:49.681Z,50.92
2023-03-13T19:24:16.733Z,50.95
2023-03-13T19:26:48.836Z,49.68
2023-03-13T19:29:18.205Z,50.37
2023-03-13T19:31:44.936Z,51.23
2023-03-13T19:34:11.665Z,51.09
2023-03-13T19:39:26.555Z,51.14
2023-03-13T19:41:53.798Z,51.24
2023-03-13T19:44:21.174Z,51.13
2023-03-13T19:46:48.467Z,51.16
2023-03-13T19:49:19.856Z,51.02
2023-03-13T19:51:46.624Z,51.15
2023-03-13T19:54:13.685Z,51.09
2023-03-13T19:56:43.017Z,51.16
2023-03-13T19:59:18.861Z,50.43
2023-03-13T20:01:46.386Z,51.21
2023-03-13T20:04:13.692Z,51.42
2023-03-13T20:06:41.923Z,51.13
2023-03-13T20:09:11.938Z,50.85
2023-03-13T20:11:38.487Z,51.40
2023-03-13T20:14:05.686Z,51.39
2023-03-13T20:16:34.917Z,51.56
2023-03-13T20:19:02.586Z,51.56
2023-03-13T20:21:31.542Z,51.62
2023-03-13T20:23:58.907Z,51.81
2023-03-13T20:26:27.156Z,51.85
2023-03-13T20:28:54.759Z,51.77
2023-03-13T20:31:24.280Z,51.66
2023-03-13T20:33:51.200Z,51.93
2023-03-13T20:36:19.756Z,52.06
2023-03-13T20:38:46.720Z,52.01
2023-03-13T20:41:13.563Z,52.25
2023-03-13T20:43:40.216Z,52.30
2023-03-13T20:46:07.485Z,52.52
2023-03-13T20:48:38.292Z,51.23
2023-03-13T20:51:06.982Z,52.36
2023-03-13T20:53:36.076Z,52.39
2023-03-13T20:56:05.974Z,52.77
2023-03-13T20:58:33.088Z,52.61
2023-03-13T21:01:00.833Z,52.59
2023-03-13T21:03:28.254Z,52.55
2023-03-13T21:05:55.200Z,52.76
2023-03-13T21:08:21.837Z,52.85
2023-03-13T21:10:48.432Z,52.98
2023-03-13T21:13:14.938Z,53.06
2023-03-13T21:15:41.414Z,53.14
2023-03-13T21:18:08.016Z,53.22
2023-03-13T21:20:34.623Z,53.35
2023-03-13T21:23:01.371Z,53.49
2023-03-13T21:25:27.938Z,53.70
2023-03-13T21:27:54.595Z,53.73
2023-03-13T21:30:21.834Z,53.86
2023-03-13T21:32:48.624Z,54.01
2023-03-13T21:35:15.834Z,54.10
2023-03-13T21:37:42.297Z,54.19
2023-03-13T21:40:09.616Z,54.18
2023-03-13T21:42:36.213Z,54.46
2023-03-13T21:45:07.092Z,54.04
2023-03-13T21:47:34.129Z,54.57
2023-03-13T21:50:00.674Z,54.76
2023-03-13T21:52:27.183Z,54.83
2023-03-13T21:54:53.758Z,54.83
2023-03-13T21:57:20.211Z,54.95
2023-03-13T21:59:46.644Z,55.04
2023-03-13T22:02:13.685Z,55.04
2023-03-13T22:04:40.451Z,55.28
2023-03-13T22:07:07.194Z,55.41
2023-03-13T22:09:33.747Z,55.56
2023-03-13T22:12:00.404Z,55.60
2023-03-13T22:14:26.953Z,55.69
2023-03-13T22:16:53.511Z,55.80
2023-03-13T22:19:20.131Z,55.89
2023-03-13T22:21:47.045Z,55.91
2023-03-13T22:24:14.184Z,56.01
2023-03-13T22:26:40.951Z,55.45
2023-03-13T22:29:07.960Z,53.73
2023-03-13T22:31:36.202Z,54.10
2023-03-13T22:34:02.776Z,52.92
2023-03-13T22:36:29.492Z,52.65
2023-03-13T22:38:56.044Z,49.46
2023-03-13T22:41:22.809Z,51.08
2023-03-13T22:43:49.479Z,51.92
2023-03-13T22:46:15.928Z,51.29
2023-03-13T22:48:42.491Z,52.04
2023-03-13T22:51:11.897Z,51.59
2023-03-13T22:53:40.697Z,51.50
2023-03-13T22:56:08.577Z,51.99
2023-03-13T22:58:35.417Z,52.17
2023-03-13T23:01:05.968Z,51.82
2023-03-13T23:03:32.707Z,52.22
2023-03-13T23:05:59.245Z,52.55
2023-03-13T23:08:25.813Z,52.39
2023-03-13T23:10:52.789Z,52.93
2023-03-13T23:13:19.348Z,52.88
2023-03-13T23:16:01.267Z,53.24
2023-03-13T23:18:27.978Z,53.58
2023-03-13T23:20:54.904Z,53.88
2023-03-13T23:23:21.860Z,54.26
2023-03-13T23:25:48.551Z,54.73
2023-03-13T23:28:15.048Z,54.96
2023-03-13T23:30:42.091Z,55.27
2023-03-13T23:33:08.563Z,55.58
2023-03-13T23:35:37.609Z,55.73
2023-03-13T23:38:04.185Z,55.90
2023-03-13T23:40:30.891Z,55.91
2023-03-13T23:42:57.397Z,56.01
2023-03-13T23:45:23.944Z,55.96
2023-03-13T23:47:52.830Z,56.01
2023-03-13T23:50:19.538Z,56.01
2023-03-13T23:52:46.021Z,56.07
2023-03-13T23:55:12.626Z,56.08
2023-03-13T23:57:39.128Z,56.11
